Time;durP1;ratioP1;P1;durP2;ratioP2;P2;SDS_P1;SDS_P2;PMS_P1;PMS_P2;Temp;Humidity;BMP_temperature;BMP_pressure;BME280_temperature;BME280_humidity;BME280_pressure;Samples;Min_cycle;Max_cycle;Signal;HPM_P1;HPM_P2
2022/04/07 00:00:35;;;;;;;;;;;22.10;50.70;;;;;;5101236;28;1988;-46
2022/04/07 00:05:42;;;;;;;;;;;22.10;50.50;;;;;;5099968;28;1358;-43
2022/04/07 00:08:10;;;;;;;;;;;22.10;50.60;;;;;;5100738;28;976;-39
2022/04/07 00:10:38;;;;;;;;;;;22.00;50.60;;;;;;5101186;28;925;-41
2022/04/07 00:13:05;;;;;;;;;;;22.10;50.60;;;;;;5100276;28;1031;-38
2022/04/07 00:15:32;;;;;;;;;;;22.00;50.70;;;;;;5100265;28;976;-38
2022/04/07 00:17:59;;;;;;;;;;;22.00;50.70;;;;;;5099875;28;1006;-37
2022/04/07 00:20:26;;;;;;;;;;;22.00;50.70;;;;;;5099598;28;1898;-37
2022/04/07 00:22:53;;;;;;;;;;;22.00;50.60;;;;;;5101069;28;992;-38
2022/04/07 00:25:20;;;;;;;;;;;22.10;50.60;;;;;;5100691;28;1004;-38
2022/04/07 00:27:48;;;;;;;;;;;22.10;50.40;;;;;;5100677;28;963;-38
2022/04/07 00:30:19;;;;;;;;;;;22.10;50.40;;;;;;5099992;28;963;-37
2022/04/07 00:32:46;;;;;;;;;;;22.10;50.40;;;;;;5098981;28;1011;-38
2022/04/07 00:35:14;;;;;;;;;;;22.10;50.30;;;;;;5099782;28;1220;-38
2022/04/07 00:37:40;;;;;;;;;;;22.10;50.40;;;;;;5099498;28;956;-37
2022/04/07 00:40:08;;;;;;;;;;;22.10;50.40;;;;;;5099857;28;1985;-37
2022/04/07 00:42:34;;;;;;;;;;;22.20;50.30;;;;;;5100561;28;989;-37
2022/04/07 00:45:04;;;;;;;;;;;22.10;50.20;;;;;;5100293;28;1034;-38
2022/04/07 00:47:32;;;;;;;;;;;22.10;50.20;;;;;;5100815;28;939;-37
2022/04/07 00:49:59;;;;;;;;;;;22.10;50.20;;;;;;5100417;28;1027;-32
2022/04/07 00:52:28;;;;;;;;;;;22.10;50.20;;;;;;5100373;28;1322;-33
2022/04/07 00:54:54;;;;;;;;;;;22.10;50.20;;;;;;5100485;28;897;-34
2022/04/07 00:57:21;;;;;;;;;;;22.10;50.20;;;;;;5100484;28;1091;-33
2022/04/07 00:59:49;;;;;;;;;;;22.10;50.20;;;;;;5100509;28;1906;-32
2022/04/07 01:02:17;;;;;;;;;;;22.10;50.30;;;;;;5100852;28;956;-32
2022/04/07 01:04:44;;;;;;;;;;;22.10;50.10;;;;;;5099767;28;996;-33
2022/04/07 01:07:12;;;;;;;;;;;22.00;50.20;;;;;;5099432;28;975;-32
2022/04/07 01:09:38;;;;;;;;;;;22.00;50.20;;;;;;5100525;28;1783;-32
2022/04/07 01:12:06;;;;;;;;;;;22.00;50.10;;;;;;5100579;28;1107;-32
2022/04/07 01:14:32;;;;;;;;;;;22.00;50.30;;;;;;5100292;28;877;-32
2022/04/07 01:16:59;;;;;;;;;;;22.00;50.10;;;;;;5100002;28;1009;-32
2022/04/07 01:19:27;;;;;;;;;;;22.00;50.20;;;;;;5100431;28;1902;-33
2022/04/07 01:21:54;;;;;;;;;;;22.00;50.10;;;;;;5100353;28;1049;-32
2022/04/07 01:24:27;;;;;;;;;;;22.00;50.20;;;;;;5099631;28;928;-32
2022/04/07 01:26:54;;;;;;;;;;;22.00;50.20;;;;;;5098715;28;998;-32
2022/04/07 01:29:25;;;;;;;;;;;22.00;50.20;;;;;;5098884;28;1055;-34
2022/04/07 01:31:52;;;;;;;;;;;22.00;50.20;;;;;;5098791;28;920;-33
2022/04/07 01:34:19;;;;;;;;;;;22.10;51.30;;;;;;5098814;28;838;-32
2022/04/07 01:36:46;;;;;;;;;;;22.00;50.20;;;;;;5099567;28;999;-32
2022/04/07 01:39:14;;;;;;;;;;;22.10;50.10;;;;;;5099091;28;1902;-32
2022/04/07 01:41:43;;;;;;;;;;;22.10;50.20;;;;;;5099261;28;892;-33
2022/04/07 01:44:10;;;;;;;;;;;22.10;50.10;;;;;;5099420;28;1245;-32
2022/04/07 01:46:37;;;;;;;;;;;22.00;50.10;;;;;;5099165;28;932;-32
2022/04/07 01:49:04;;;;;;;;;;;22.00;50.10;;;;;;5098756;28;948;-32
2022/04/07 01:51:30;;;;;;;;;;;22.00;50.10;;;;;;5098906;28;1003;-32
2022/04/07 01:53:57;;;;;;;;;;;22.00;50.20;;;;;;5098980;28;935;-32
2022/04/07 01:56:24;;;;;;;;;;;22.00;50.30;;;;;;5099279;28;972;-33
2022/04/07 01:58:53;;;;;;;;;;;22.00;50.20;;;;;;5099316;28;895;-32
2022/04/07 02:01:19;;;;;;;;;;;22.00;50.10;;;;;;5098942;28;1972;-32
2022/04/07 02:03:46;;;;;;;;;;;21.90;50.10;;;;;;5098788;28;951;-34
2022/04/07 02:06:14;;;;;;;;;;;22.00;50.10;;;;;;5099512;28;968;-33
2022/04/07 02:08:41;;;;;;;;;;;22.00;51.30;;;;;;5098485;28;929;-32
2022/04/07 02:11:08;;;;;;;;;;;22.00;50.10;;;;;;5098930;28;960;-38
2022/04/07 02:13:38;;;;;;;;;;;22.00;50.10;;;;;;5097232;28;932;-38
2022/04/07 02:16:06;;;;;;;;;;;22.00;50.10;;;;;;5098549;28;1003;-37
2022/04/07 02:18:33;;;;;;;;;;;22.00;50.00;;;;;;5098860;28;1144;-37
2022/04/07 02:20:59;;;;;;;;;;;22.00;50.00;;;;;;5098848;28;1974;-38
2022/04/07 02:23:27;;;;;;;;;;;22.00;50.00;;;;;;5098590;28;1096;-37
2022/04/07 02:25:54;;;;;;;;;;;21.90;51.30;;;;;;5098649;28;988;-37
2022/04/07 02:28:21;;;;;;;;;;;22.00;50.10;;;;;;5099183;28;980;-38
2022/04/07 02:30:47;;;;;;;;;;;22.00;50.00;;;;;;5099251;28;975;-39
2022/04/07 02:33:16;;;;;;;;;;;21.90;50.10;;;;;;5098936;28;1028;-37
2022/04/07 02:35:42;;;;;;;;;;;21.90;50.00;;;;;;5096982;28;939;-38
2022/04/07 02:38:09;;;;;;;;;;;21.90;50.00;;;;;;5097483;28;1858;-39
2022/04/07 02:40:36;;;;;;;;;;;22.00;50.00;;;;;;5098179;28;1905;-38
2022/04/07 02:43:03;;;;;;;;;;;22.00;50.00;;;;;;5098038;28;1008;-38
2022/04/07 02:45:29;;;;;;;;;;;22.00;50.00;;;;;;5098066;28;937;-38
2022/04/07 02:47:56;;;;;;;;;;;22.00;50.00;;;;;;5097955;28;1007;-38
2022/04/07 02:50:24;;;;;;;;;;;21.90;50.00;;;;;;5097387;28;945;-38
2022/04/07 02:52:51;;;;;;;;;;;22.00;49.90;;;;;;5097902;28;970;-38
2022/04/07 02:55:17;;;;;;;;;;;21.90;49.80;;;;;;5098237;28;948;-37
2022/04/07 02:57:44;;;;;;;;;;;21.90;49.80;;;;;;5098598;28;976;-37
2022/04/07 03:00:12;;;;;;;;;;;22.00;50.00;;;;;;5097387;28;1971;-37
2022/04/07 03:02:39;;;;;;;;;;;21.90;50.00;;;;;;5097442;28;971;-38
2022/04/07 03:05:06;;;;;;;;;;;21.90;50.00;;;;;;5097267;28;1005;-37
2022/04/07 03:07:35;;;;;;;;;;;21.90;50.00;;;;;;5097166;28;1080;-38
2022/04/07 03:10:02;;;;;;;;;;;21.90;50.00;;;;;;5097368;28;972;-37
2022/04/07 03:12:28;;;;;;;;;;;21.90;49.80;;;;;;5097558;28;921;-37
2022/04/07 03:14:55;;;;;;;;;;;21.90;49.90;;;;;;5098172;28;980;-38
2022/04/07 03:17:22;;;;;;;;;;;21.90;49.80;;;;;;5098149;28;995;-38
2022/04/07 03:19:49;;;;;;;;;;;21.90;49.90;;;;;;5098319;28;1971;-37
2022/04/07 03:22:18;;;;;;;;;;;21.90;50.00;;;;;;5097638;28;881;-38
2022/04/07 03:24:46;;;;;;;;;;;21.90;49.80;;;;;;5098123;28;989;-40
2022/04/07 03:27:13;;;;;;;;;;;22.00;49.70;;;;;;5097102;28;893;-37
2022/04/07 03:29:40;;;;;;;;;;;21.90;49.70;;;;;;5096631;28;1023;-39
2022/04/07 03:32:07;;;;;;;;;;;21.90;49.80;;;;;;5097282;28;906;-38
2022/04/07 03:34:34;;;;;;;;;;;21.90;49.90;;;;;;5096789;28;1016;-38
2022/04/07 03:37:01;;;;;;;;;;;21.90;49.80;;;;;;5096825;28;1446;-38
2022/04/07 03:39:27;;;;;;;;;;;21.90;49.80;;;;;;5096302;28;913;-38
2022/04/07 03:41:55;;;;;;;;;;;22.00;49.90;;;;;;5097000;28;1906;-38
2022/04/07 03:44:22;;;;;;;;;;;21.90;49.80;;;;;;5097249;28;1126;-37
2022/04/07 03:46:49;;;;;;;;;;;21.90;49.90;;;;;;5097137;28;1050;-37
2022/04/07 03:49:16;;;;;;;;;;;21.90;49.90;;;;;;5097335;28;1059;-37
2022/04/07 03:51:42;;;;;;;;;;;21.90;49.90;;;;;;5097123;28;976;-38
2022/04/07 03:54:09;;;;;;;;;;;21.90;49.90;;;;;;5097128;28;939;-37
2022/04/07 03:56:36;;;;;;;;;;;21.90;49.80;;;;;;5096951;28;1000;-39
2022/04/07 03:59:04;;;;;;;;;;;21.90;49.90;;;;;;5096968;28;1031;-37
2022/04/07 04:01:31;;;;;;;;;;;21.80;49.90;;;;;;5097573;28;1983;-38
2022/04/07 04:03:57;;;;;;;;;;;21.90;49.90;;;;;;5097549;28;948;-37
2022/04/07 04:06:24;;;;;;;;;;;21.90;50.00;;;;;;5096593;28;1000;-37
2022/04/07 04:08:51;;;;;;;;;;;21.90;50.00;;;;;;5094998;28;941;-38
2022/04/07 04:11:18;;;;;;;;;;;21.90;49.90;;;;;;5096375;28;1506;-38
2022/04/07 04:13:45;;;;;;;;;;;21.90;49.80;;;;;;5097187;28;896;-38
2022/04/07 04:16:15;;;;;;;;;;;21.90;49.80;;;;;;5098765;28;994;-37
2022/04/07 04:18:42;;;;;;;;;;;21.90;49.90;;;;;;5101044;28;1012;-37
2022/04/07 04:21:08;;;;;;;;;;;21.90;49.90;;;;;;5101163;28;1980;-37
2022/04/07 04:23:35;;;;;;;;;;;21.90;50.10;;;;;;5100527;28;1031;-39
2022/04/07 04:26:04;;;;;;;;;;;21.90;50.00;;;;;;5100479;28;940;-37
2022/04/07 04:28:30;;;;;;;;;;;21.90;50.00;;;;;;5099574;28;970;-38
2022/04/07 04:30:57;;;;;;;;;;;21.90;50.00;;;;;;5099520;28;1083;-38
2022/04/07 04:33:25;;;;;;;;;;;21.90;50.10;;;;;;5098961;28;1007;-38
2022/04/07 04:35:52;;;;;;;;;;;21.90;50.00;;;;;;5098825;28;1000;-37
2022/04/07 04:38:18;;;;;;;;;;;21.90;49.90;;;;;;5097770;28;1010;-38
2022/04/07 04:40:45;;;;;;;;;;;21.90;50.00;;;;;;5098482;28;1913;-37
2022/04/07 04:43:12;;;;;;;;;;;22.00;49.90;;;;;;5099648;28;988;-37
2022/04/07 04:45:39;;;;;;;;;;;22.00;49.70;;;;;;5099359;28;1000;-37
2022/04/07 04:48:06;;;;;;;;;;;22.10;49.70;;;;;;5099884;28;972;-38
2022/04/07 04:50:34;;;;;;;;;;;22.00;49.60;;;;;;5100055;28;976;-37
2022/04/07 04:53:01;;;;;;;;;;;22.00;49.70;;;;;;5099040;28;975;-38
2022/04/07 04:55:28;;;;;;;;;;;22.00;49.80;;;;;;5098169;28;937;-38
2022/04/07 04:57:55;;;;;;;;;;;22.00;49.90;;;;;;5099729;28;1047;-38
2022/04/07 05:00:21;;;;;;;;;;;21.90;50.00;;;;;;5099343;28;1905;-40
2022/04/07 05:02:48;;;;;;;;;;;21.90;49.90;;;;;;5099814;28;1015;-38
2022/04/07 05:05:15;;;;;;;;;;;21.90;50.00;;;;;;5099256;28;988;-38
2022/04/07 05:07:43;;;;;;;;;;;21.90;50.00;;;;;;5098264;28;1004;-37
2022/04/07 05:10:10;;;;;;;;;;;21.90;50.00;;;;;;5096326;28;1008;-38
2022/04/07 05:12:36;;;;;;;;;;;21.90;49.90;;;;;;5097390;28;1042;-38
2022/04/07 05:15:04;;;;;;;;;;;22.00;49.90;;;;;;5096281;28;1031;-38
2022/04/07 05:17:31;;;;;;;;;;;22.00;49.90;;;;;;5097207;28;964;-39
2022/04/07 05:19:58;;;;;;;;;;;22.00;49.80;;;;;;5096991;28;959;-37
2022/04/07 05:22:24;;;;;;;;;;;22.00;49.90;;;;;;5096818;28;1918;-38
2022/04/07 05:24:53;;;;;;;;;;;22.00;49.80;;;;;;5097436;28;944;-37
2022/04/07 05:27:19;;;;;;;;;;;22.00;49.80;;;;;;5097025;28;984;-37
2022/04/07 05:29:46;;;;;;;;;;;22.00;49.80;;;;;;5093136;28;1038;-37
2022/04/07 05:32:13;;;;;;;;;;;22.00;49.80;;;;;;5094906;28;939;-37
2022/04/07 05:34:40;;;;;;;;;;;22.00;49.70;;;;;;5094405;28;925;-38
2022/04/07 05:37:07;;;;;;;;;;;22.00;49.70;;;;;;5095342;28;888;-39
2022/04/07 05:39:33;;;;;;;;;;;22.00;49.90;;;;;;5094766;28;956;-38
2022/04/07 05:42:01;;;;;;;;;;;21.90;50.00;;;;;;5095781;28;1909;-38
2022/04/07 05:44:28;;;;;;;;;;;22.00;50.00;;;;;;5095737;28;1098;-40
2022/04/07 05:46:55;;;;;;;;;;;21.90;50.10;;;;;;5097573;28;961;-38
2022/04/07 05:49:22;;;;;;;;;;;22.00;50.10;;;;;;5096964;28;975;-40
2022/04/07 05:51:53;;;;;;;;;;;21.90;50.10;;;;;;5097017;28;1048;-40
2022/04/07 05:54:20;;;;;;;;;;;21.90;50.10;;;;;;5097001;28;963;-37
2022/04/07 05:56:47;;;;;;;;;;;21.90;50.10;;;;;;5096459;28;1006;-44
2022/04/07 05:59:15;;;;;;;;;;;22.00;50.00;;;;;;5096585;28;868;-40
2022/04/07 06:01:42;;;;;;;;;;;22.10;49.70;;;;;;5096366;28;1988;-44
2022/04/07 06:04:08;;;;;;;;;;;22.00;49.80;;;;;;5096896;28;1019;-44
2022/04/07 06:06:35;;;;;;;;;;;22.00;49.80;;;;;;5096969;28;1096;-44
2022/04/07 06:09:02;;;;;;;;;;;22.00;49.80;;;;;;5095305;28;874;-42
2022/04/07 06:11:29;;;;;;;;;;;22.00;49.80;;;;;;5096015;28;943;-42
2022/04/07 06:13:56;;;;;;;;;;;22.00;49.80;;;;;;5096494;28;889;-44
2022/04/07 06:16:24;;;;;;;;;;;22.10;49.80;;;;;;5097470;28;989;-42
2022/04/07 06:18:51;;;;;;;;;;;22.10;49.70;;;;;;5096826;28;1014;-38
2022/04/07 06:21:18;;;;;;;;;;;22.30;49.40;;;;;;5097978;28;1984;-43
2022/04/07 06:23:44;;;;;;;;;;;22.20;49.60;;;;;;5101623;28;1001;-43
2022/04/07 06:26:11;;;;;;;;;;;22.20;50.70;;;;;;5100991;28;1786;-44
2022/04/07 06:28:40;;;;;;;;;;;22.20;49.70;;;;;;5097736;28;908;-42
2022/04/07 06:31:06;;;;;;;;;;;22.20;50.00;;;;;;5096213;28;1151;-40
2022/04/07 06:33:35;;;;;;;;;;;22.30;50.00;;;;;;5096325;28;1100;-40
2022/04/07 06:36:02;;;;;;;;;;;22.20;50.10;;;;;;5095855;28;1036;-39
2022/04/07 06:38:30;;;;;;;;;;;22.10;50.20;;;;;;5094341;28;987;-38
2022/04/07 06:40:57;;;;;;;;;;;22.10;50.40;;;;;;5094966;28;1985;-35
2022/04/07 06:43:24;;;;;;;;;;;22.00;50.50;;;;;;5096053;28;1369;-37
2022/04/07 06:45:50;;;;;;;;;;;22.00;50.50;;;;;;5095111;28;972;-37
2022/04/07 06:48:17;;;;;;;;;;;22.00;50.50;;;;;;5095607;28;1012;-36
2022/04/07 06:50:45;;;;;;;;;;;22.00;50.50;;;;;;5094467;28;1010;-38
2022/04/07 06:53:13;;;;;;;;;;;21.90;50.60;;;;;;5095793;28;1292;-37
2022/04/07 06:55:40;;;;;;;;;;;21.90;50.50;;;;;;5095738;28;972;-37
2022/04/07 06:58:08;;;;;;;;;;;21.90;50.60;;;;;;5095361;28;936;-38
2022/04/07 07:00:36;;;;;;;;;;;21.90;50.50;;;;;;5095249;28;936;-34
2022/04/07 07:03:03;;;;;;;;;;;21.90;50.60;;;;;;5094892;28;2022;-36
2022/04/07 07:05:32;;;;;;;;;;;21.90;50.50;;;;;;5095535;28;1019;-38
2022/04/07 07:08:10;;;;;;;;;;;21.90;50.50;;;;;;5094460;28;1035;-36
2022/04/07 07:10:37;;;;;;;;;;;22.00;50.50;;;;;;5094407;28;955;-34
2022/04/07 07:13:03;;;;;;;;;;;22.00;50.50;;;;;;5095025;28;1028;-37
2022/04/07 07:15:30;;;;;;;;;;;21.90;50.50;;;;;;5095432;28;943;-38
2022/04/07 07:17:57;;;;;;;;;;;22.00;50.40;;;;;;5094658;28;1019;-37
2022/04/07 07:20:24;;;;;;;;;;;22.00;50.40;;;;;;5093771;28;1012;-37
2022/04/07 07:22:50;;;;;;;;;;;22.00;50.30;;;;;;5094624;28;1980;-37
2022/04/07 07:25:19;;;;;;;;;;;22.00;51.50;;;;;;5093395;28;1015;-37
2022/04/07 07:27:46;;;;;;;;;;;22.00;50.50;;;;;;5093348;28;1034;-35
2022/04/07 07:30:15;;;;;;;;;;;22.00;50.40;;;;;;5094087;28;938;-37
2022/04/07 07:32:42;;;;;;;;;;;21.90;50.30;;;;;;5093878;28;1041;-35
2022/04/07 07:35:10;;;;;;;;;;;21.90;50.50;;;;;;5094382;28;913;-38
2022/04/07 07:37:37;;;;;;;;;;;22.00;50.40;;;;;;5094501;28;876;-36
2022/04/07 07:40:04;;;;;;;;;;;21.90;50.40;;;;;;5093750;28;1047;-36
2022/04/07 07:42:36;;;;;;;;;;;21.90;50.50;;;;;;5094509;28;1910;-36
2022/04/07 07:45:03;;;;;;;;;;;21.90;50.50;;;;;;5095079;28;1147;-36
2022/04/07 07:47:30;;;;;;;;;;;22.00;50.30;;;;;;5094618;28;1078;-38
2022/04/07 07:49:57;;;;;;;;;;;22.00;50.30;;;;;;5095339;28;849;-34
2022/04/07 07:52:24;;;;;;;;;;;21.90;50.40;;;;;;5099234;28;940;-34
2022/04/07 07:54:51;;;;;;;;;;;21.90;50.30;;;;;;5099087;28;983;-35
2022/04/07 07:57:19;;;;;;;;;;;22.00;50.30;;;;;;5099713;28;1000;-35
2022/04/07 07:59:47;;;;;;;;;;;21.90;50.40;;;;;;5099086;28;1000;-36
2022/04/07 08:02:14;;;;;;;;;;;22.00;50.40;;;;;;5099568;28;1902;-35
2022/04/07 08:04:41;;;;;;;;;;;21.90;50.30;;;;;;5097847;28;1032;-35
2022/04/07 08:07:07;;;;;;;;;;;22.00;50.30;;;;;;5097990;28;1834;-36
2022/04/07 08:09:34;;;;;;;;;;;21.90;50.30;;;;;;5098064;28;971;-35
2022/04/07 08:12:02;;;;;;;;;;;21.90;50.40;;;;;;5099625;28;948;-35
2022/04/07 08:14:29;;;;;;;;;;;21.90;50.40;;;;;;5099429;28;948;-35
2022/04/07 08:16:57;;;;;;;;;;;21.90;50.30;;;;;;5098308;28;1812;-36
2022/04/07 08:19:24;;;;;;;;;;;21.90;50.40;;;;;;5099245;28;944;-34
2022/04/07 08:21:51;;;;;;;;;;;22.00;50.30;;;;;;5099513;28;1906;-34
2022/04/07 08:24:19;;;;;;;;;;;21.90;50.40;;;;;;5098562;28;1009;-34
2022/04/07 08:26:46;;;;;;;;;;;22.00;50.20;;;;;;5098589;28;980;-35
2022/04/07 08:29:13;;;;;;;;;;;21.90;50.30;;;;;;5098319;28;889;-35
2022/04/07 08:31:39;;;;;;;;;;;21.90;50.30;;;;;;5097508;28;1000;-35
2022/04/07 08:34:07;;;;;;;;;;;22.00;50.30;;;;;;5097677;28;892;-35
2022/04/07 08:36:34;;;;;;;;;;;22.00;50.30;;;;;;5096779;28;1371;-35
2022/04/07 08:39:01;;;;;;;;;;;21.90;50.20;;;;;;5097716;28;931;-35
2022/04/07 08:41:31;;;;;;;;;;;22.00;50.20;;;;;;5096764;28;1909;-34
2022/04/07 08:43:58;;;;;;;;;;;22.00;50.30;;;;;;5096819;28;1032;-35
2022/04/07 08:46:27;;;;;;;;;;;21.90;50.10;;;;;;5099963;28;1008;-35
2022/04/07 08:48:55;;;;;;;;;;;22.00;50.20;;;;;;5097490;28;943;-35
2022/04/07 08:51:26;;;;;;;;;;;22.00;50.10;;;;;;5098546;28;1312;-36
2022/04/07 08:53:52;;;;;;;;;;;22.00;49.90;;;;;;5098474;28;1031;-36
2022/04/07 08:56:19;;;;;;;;;;;21.90;50.00;;;;;;5098237;28;972;-35
2022/04/07 08:58:46;;;;;;;;;;;22.00;50.10;;;;;;5097898;28;988;-35
2022/04/07 09:01:13;;;;;;;;;;;21.90;50.10;;;;;;5097168;28;976;-39
2022/04/07 09:03:39;;;;;;;;;;;22.00;50.10;;;;;;5098199;28;1973;-40
2022/04/07 09:06:06;;;;;;;;;;;21.90;50.10;;;;;;5098605;28;941;-40
2022/04/07 09:08:35;;;;;;;;;;;22.00;50.20;;;;;;5095895;28;1165;-38
2022/04/07 09:11:03;;;;;;;;;;;21.90;50.10;;;;;;5097157;28;912;-38
2022/04/07 09:13:30;;;;;;;;;;;22.00;50.10;;;;;;5097652;28;1082;-39
2022/04/07 09:15:58;;;;;;;;;;;21.90;50.10;;;;;;5097947;28;987;-38
2022/04/07 09:18:25;;;;;;;;;;;21.90;50.10;;;;;;5098119;28;975;-39
2022/04/07 09:20:52;;;;;;;;;;;21.90;50.10;;;;;;5098023;28;981;-40
2022/04/07 09:23:19;;;;;;;;;;;21.90;50.20;;;;;;5098193;28;1969;-39
2022/04/07 09:25:49;;;;;;;;;;;21.90;50.10;;;;;;5097687;28;925;-39
2022/04/07 09:28:26;;;;;;;;;;;21.90;51.20;;;;;;5096739;28;1015;-38
2022/04/07 09:30:53;;;;;;;;;;;21.90;50.20;;;;;;5096131;28;1776;-33
2022/04/07 09:33:23;;;;;;;;;;;21.90;50.20;;;;;;5100015;28;1002;-33
2022/04/07 09:36:06;;;;;;;;;;;21.90;50.20;;;;;;5098836;28;1234;-34
2022/04/07 09:38:34;;;;;;;;;;;21.90;50.30;;;;;;5096929;28;1141;-34
2022/04/07 09:41:07;;;;;;;;;;;22.00;50.10;;;;;;5096659;28;913;-34
2022/04/07 09:43:42;;;;;;;;;;;21.90;50.20;;;;;;5095394;28;2010;-40
2022/04/07 09:46:09;;;;;;;;;;;21.90;50.20;;;;;;5097600;28;1030;-39
2022/04/07 09:48:37;;;;;;;;;;;21.90;50.30;;;;;;5096975;28;992;-38
2022/04/07 09:51:04;;;;;;;;;;;21.90;50.20;;;;;;5096068;28;876;-39
2022/04/07 09:53:35;;;;;;;;;;;22.00;50.00;;;;;;5097480;28;1088;-38
2022/04/07 09:56:02;;;;;;;;;;;22.00;50.00;;;;;;5095944;28;900;-37
2022/04/07 09:58:31;;;;;;;;;;;22.00;49.90;;;;;;5097057;28;1005;-40
2022/04/07 10:00:59;;;;;;;;;;;22.00;50.00;;;;;;5096624;28;995;-44
2022/04/07 10:03:27;;;;;;;;;;;22.00;50.00;;;;;;5097226;28;1967;-43
2022/04/07 10:05:54;;;;;;;;;;;22.00;50.00;;;;;;5097746;28;1070;-41
2022/04/07 10:08:21;;;;;;;;;;;22.00;50.10;;;;;;5096560;28;1009;-42
2022/04/07 10:10:48;;;;;;;;;;;21.90;50.10;;;;;;5095655;28;1024;-40
2022/04/07 10:13:15;;;;;;;;;;;22.00;50.20;;;;;;5096070;28;952;-43
2022/04/07 10:15:44;;;;;;;;;;;22.00;50.20;;;;;;5097472;28;911;-40
2022/04/07 10:18:18;;;;;;;;;;;22.00;50.10;;;;;;5097119;28;958;-42
2022/04/07 10:20:47;;;;;;;;;;;21.90;50.10;;;;;;5095062;28;1039;-39
2022/04/07 10:23:21;;;;;;;;;;;22.00;50.10;;;;;;5096375;28;1975;-40
2022/04/07 10:25:50;;;;;;;;;;;22.00;50.30;;;;;;5096868;28;965;-41
2022/04/07 10:28:17;;;;;;;;;;;22.00;50.10;;;;;;5094402;28;900;-45
2022/04/07 10:30:50;;;;;;;;;;;22.00;51.20;;;;;;5094375;28;989;-45
2022/04/07 10:33:32;;;;;;;;;;;22.00;50.10;;;;;;5095330;28;1024;-41
2022/04/07 10:35:59;;;;;;;;;;;21.90;50.10;;;;;;5096542;28;969;-45
2022/04/07 10:38:36;;;;;;;;;;;21.90;50.10;;;;;;5095511;28;1005;-42
2022/04/07 10:41:03;;;;;;;;;;;21.90;50.10;;;;;;5093870;28;936;-43
2022/04/07 10:43:30;;;;;;;;;;;22.00;50.10;;;;;;5094881;28;1896;-39
2022/04/07 10:46:12;;;;;;;;;;;21.90;50.10;;;;;;5095397;28;1007;-46
2022/04/07 10:48:44;;;;;;;;;;;22.00;50.00;;;;;;5095515;28;984;-45
2022/04/07 10:51:12;;;;;;;;;;;21.90;50.00;;;;;;5094732;28;900;-46
2022/04/07 10:53:39;;;;;;;;;;;21.90;50.10;;;;;;5094779;28;1867;-46
2022/04/07 10:56:08;;;;;;;;;;;22.00;49.80;;;;;;5095085;28;887;-45
2022/04/07 10:58:42;;;;;;;;;;;22.00;50.00;;;;;;5094423;28;1058;-45
2022/04/07 11:01:14;;;;;;;;;;;22.00;49.90;;;;;;5094735;28;1012;-41
2022/04/07 11:03:42;;;;;;;;;;;22.00;49.80;;;;;;5094399;28;1991;-42
2022/04/07 11:06:10;;;;;;;;;;;22.00;49.80;;;;;;5095822;28;1512;-37
2022/04/07 11:08:37;;;;;;;;;;;22.00;49.80;;;;;;5093320;28;1201;-41
2022/04/07 11:11:04;;;;;;;;;;;21.90;49.70;;;;;;5093355;28;853;-39
2022/04/07 11:13:45;;;;;;;;;;;22.00;49.70;;;;;;5095444;28;958;-37
2022/04/07 11:16:19;;;;;;;;;;;22.00;49.60;;;;;;5095961;28;896;-38
2022/04/07 11:18:55;;;;;;;;;;;21.90;49.60;;;;;;5095035;28;951;-38
2022/04/07 11:21:22;;;;;;;;;;;21.90;49.60;;;;;;5094678;28;980;-39
2022/04/07 11:23:52;;;;;;;;;;;21.90;49.60;;;;;;5093989;28;1898;-38
2022/04/07 11:26:20;;;;;;;;;;;21.90;49.70;;;;;;5098330;28;973;-37
2022/04/07 11:29:05;;;;;;;;;;;21.90;49.60;;;;;;5098628;28;1029;-39
2022/04/07 11:31:44;;;;;;;;;;;21.90;49.60;;;;;;5098930;28;993;-40
2022/04/07 11:34:30;;;;;;;;;;;21.90;49.50;;;;;;5099384;28;1921;-41
2022/04/07 11:36:57;;;;;;;;;;;21.90;49.60;;;;;;5098133;28;903;-37
2022/04/07 11:39:24;;;;;;;;;;;21.90;49.50;;;;;;5098276;28;1009;-43
2022/04/07 11:41:52;;;;;;;;;;;21.90;49.60;;;;;;5098397;28;1006;-42
2022/04/07 11:44:20;;;;;;;;;;;21.90;49.50;;;;;;5097756;28;1984;-38
2022/04/07 11:46:48;;;;;;;;;;;21.90;49.50;;;;;;5097757;28;949;-41
2022/04/07 11:49:17;;;;;;;;;;;21.90;49.30;;;;;;5098084;28;1901;-43
2022/04/07 11:51:45;;;;;;;;;;;21.90;49.40;;;;;;5096084;28;868;-43
2022/04/07 11:54:16;;;;;;;;;;;21.90;49.40;;;;;;5097215;28;1055;-43
2022/04/07 11:56:44;;;;;;;;;;;21.90;49.20;;;;;;5096540;28;1088;-41
2022/04/07 11:59:12;;;;;;;;;;;21.90;49.20;;;;;;5096796;28;1090;-43
2022/04/07 12:01:40;;;;;;;;;;;21.90;49.10;;;;;;5095839;28;1343;-39
2022/04/07 12:04:10;;;;;;;;;;;21.90;49.00;;;;;;5095631;28;1901;-43
2022/04/07 12:06:38;;;;;;;;;;;22.00;49.20;;;;;;5095284;28;1304;-43
2022/04/07 12:09:05;;;;;;;;;;;21.90;49.00;;;;;;5079480;28;1414;-38
2022/04/07 12:11:33;;;;;;;;;;;21.90;49.10;;;;;;5076029;28;931;-38
2022/04/07 12:14:01;;;;;;;;;;;21.90;49.10;;;;;;5078034;28;1003;-38
2022/04/07 12:16:28;;;;;;;;;;;21.90;49.00;;;;;;5078245;28;1009;-40
2022/04/07 12:18:56;;;;;;;;;;;21.90;49.70;;;;;;5076593;28;1000;-38
2022/04/07 12:21:25;;;;;;;;;;;21.90;49.00;;;;;;5078790;28;1006;-40
2022/04/07 12:24:08;;;;;;;;;;;21.90;49.10;;;;;;5077864;28;1918;-45
2022/04/07 12:26:41;;;;;;;;;;;21.90;49.00;;;;;;5076162;28;1196;-41
2022/04/07 12:29:08;;;;;;;;;;;21.90;49.00;;;;;;5076191;28;1377;-45
2022/04/07 12:31:35;;;;;;;;;;;21.90;48.90;;;;;;5076326;28;1638;-44
2022/04/07 12:34:09;;;;;;;;;;;21.90;48.90;;;;;;5076582;28;997;-43
2022/04/07 12:36:38;;;;;;;;;;;21.90;48.80;;;;;;5075632;28;1869;-44
2022/04/07 12:39:06;;;;;;;;;;;21.90;48.90;;;;;;5076629;28;973;-40
2022/04/07 12:41:37;;;;;;;;;;;21.90;49.00;;;;;;5077000;28;987;-48
2022/04/07 12:44:04;;;;;;;;;;;21.90;48.90;;;;;;5076078;28;1917;-48
2022/04/07 12:46:43;;;;;;;;;;;21.90;49.00;;;;;;5077213;28;1012;-45
2022/04/07 12:49:10;;;;;;;;;;;21.90;49.00;;;;;;5076581;28;943;-45
2022/04/07 12:51:39;;;;;;;;;;;21.90;49.00;;;;;;5074953;28;1020;-45
2022/04/07 12:54:06;;;;;;;;;;;21.90;49.00;;;;;;5074422;28;857;-46
2022/04/07 12:56:33;;;;;;;;;;;21.90;49.00;;;;;;5076635;28;985;-45
2022/04/07 12:59:00;;;;;;;;;;;21.90;49.10;;;;;;5076818;28;996;-45
2022/04/07 13:01:27;;;;;;;;;;;21.90;49.00;;;;;;5075971;28;1004;-44
2022/04/07 13:03:56;;;;;;;;;;;22.00;49.00;;;;;;5077071;28;1977;-38
2022/04/07 13:06:24;;;;;;;;;;;22.00;48.80;;;;;;5081102;28;1782;-41
2022/04/07 13:08:53;;;;;;;;;;;22.00;48.70;;;;;;5097855;28;881;-40
2022/04/07 13:11:33;;;;;;;;;;;22.00;48.60;;;;;;5096288;28;911;-40
2022/04/07 13:14:00;;;;;;;;;;;22.10;48.60;;;;;;5096946;28;1014;-40
2022/04/07 13:16:27;;;;;;;;;;;22.20;48.20;;;;;;5097989;28;974;-43
2022/04/07 13:18:54;;;;;;;;;;;22.20;48.20;;;;;;5096293;28;1056;-40
2022/04/07 13:21:21;;;;;;;;;;;22.20;48.20;;;;;;5097447;28;1027;-37
2022/04/07 13:23:48;;;;;;;;;;;22.20;48.10;;;;;;5097505;28;1893;-38
2022/04/07 13:26:16;;;;;;;;;;;22.20;48.10;;;;;;5097535;28;1540;-35
2022/04/07 13:28:43;;;;;;;;;;;22.20;48.10;;;;;;5096899;28;1059;-36
2022/04/07 13:31:10;;;;;;;;;;;22.20;48.00;;;;;;5095679;28;944;-35
2022/04/07 13:33:37;;;;;;;;;;;22.30;48.10;;;;;;5097457;28;1031;-35
2022/04/07 13:36:06;;;;;;;;;;;22.20;48.10;;;;;;5099348;28;925;-35
2022/04/07 13:38:32;;;;;;;;;;;22.30;48.10;;;;;;5096824;28;1024;-35
2022/04/07 13:41:00;;;;;;;;;;;22.30;48.10;;;;;;5098467;28;997;-40
2022/04/07 13:43:29;;;;;;;;;;;22.20;47.90;;;;;;5096375;28;1906;-40
2022/04/07 13:45:56;;;;;;;;;;;22.30;47.90;;;;;;5096931;28;941;-40
2022/04/07 13:48:22;;;;;;;;;;;22.20;48.00;;;;;;5097878;28;1023;-42
2022/04/07 13:50:51;;;;;;;;;;;22.20;48.10;;;;;;5097430;28;1015;-41
2022/04/07 13:53:18;;;;;;;;;;;22.10;48.10;;;;;;5097089;28;971;-40
2022/04/07 13:55:46;;;;;;;;;;;22.10;48.10;;;;;;5095408;28;988;-40
2022/04/07 13:58:13;;;;;;;;;;;22.10;48.10;;;;;;5097557;28;1043;-42
2022/04/07 14:00:42;;;;;;;;;;;22.10;48.10;;;;;;5095004;28;870;-41
2022/04/07 14:03:10;;;;;;;;;;;22.10;48.10;;;;;;5095899;28;1906;-38
2022/04/07 14:05:36;;;;;;;;;;;22.10;48.30;;;;;;5097967;28;1043;-37
2022/04/07 14:08:03;;;;;;;;;;;22.10;48.20;;;;;;5098427;28;987;-36
2022/04/07 14:10:31;;;;;;;;;;;22.10;48.30;;;;;;5097051;28;1142;-38
2022/04/07 14:12:58;;;;;;;;;;;22.20;48.10;;;;;;5097226;28;1006;-37
2022/04/07 14:15:25;;;;;;;;;;;22.20;48.00;;;;;;5096542;28;972;-39
2022/04/07 14:17:55;;;;;;;;;;;22.30;47.90;;;;;;5095654;28;1224;-38
2022/04/07 14:20:22;;;;;;;;;;;22.30;47.90;;;;;;5095394;28;884;-37
2022/04/07 14:22:50;;;;;;;;;;;22.20;48.00;;;;;;5095042;28;952;-36
2022/04/07 14:25:19;;;;;;;;;;;22.30;47.80;;;;;;5093530;28;1960;-38
2022/04/07 14:27:46;;;;;;;;;;;22.30;47.90;;;;;;5094590;28;984;-35
2022/04/07 14:30:13;;;;;;;;;;;22.10;48.00;;;;;;5094713;28;960;-37
2022/04/07 14:32:43;;;;;;;;;;;22.10;49.30;;;;;;5093939;28;985;-34
2022/04/07 14:35:11;;;;;;;;;;;22.00;48.40;;;;;;5095256;28;750;-37
2022/04/07 14:37:38;;;;;;;;;;;22.00;48.60;;;;;;5094651;28;1069;-37
2022/04/07 14:40:06;;;;;;;;;;;22.00;48.40;;;;;;5094579;28;951;-37
2022/04/07 14:42:33;;;;;;;;;;;22.00;48.40;;;;;;5094239;28;1035;-37